Lavoy, Canada
Current Conditions -  °F | °C
As of 11:00 AM on Friday 24 Oct 2014 (Local Time) from CYED Reporting Station
Clear Clear  
Wind Chill: 39°   Ceiling: Unl
Heat Index: 45°   Visibility: 9mi
Dew Point: 30°   Wind: 12mph
Humidity: 57%   Direction: 260°W
Pressure: 29.82"   Gusts: 21mph
Location:  53.47°N, 111.87°W
Report Text: CYED 241700Z AUTO 26010G18KT 9SM CLR 07/M01 A2982 RMK SLP120
Loading
Personal Weather Stations






























Interactive Weather Map
Tropical Storm Tracking
New forecast layout! Learn more

10-Day Weather Forecast

Advertisements
Track Severe Weather on mobile